createdAt,value
2023-12-23T00:01:17.893Z,97867.69
2023-12-23T00:02:51.871Z,97859.59
2023-12-23T00:04:25.280Z,97863.28
2023-12-23T00:05:57.819Z,97859.78
2023-12-23T00:07:31.115Z,97864.16
2023-12-23T00:09:03.360Z,97866.13
2023-12-23T00:10:36.665Z,97845.19
2023-12-23T00:12:10.224Z,97872.84
2023-12-23T00:13:43.603Z,97867.13
2023-12-23T00:15:15.918Z,97875.91
2023-12-23T00:16:49.403Z,97882.09
2023-12-23T00:18:23.479Z,97885.31
2023-12-23T00:19:57.904Z,97879.16
2023-12-23T00:21:31.347Z,97845.31
2023-12-23T00:23:04.769Z,97890.78
2023-12-23T00:24:37.906Z,97888.81
2023-12-23T00:26:11.229Z,97879.03
2023-12-23T00:27:48.506Z,97880.19
2023-12-23T00:29:21.869Z,97868.03
2023-12-23T00:30:54.594Z,97877.72
2023-12-23T00:32:27.856Z,97866.03
2023-12-23T00:34:01.641Z,97870.81
2023-12-23T00:35:34.917Z,97859.72
2023-12-23T00:37:07.773Z,97884.31
2023-12-23T00:38:40.981Z,97877.69
2023-12-23T00:40:13.695Z,97870.91
2023-12-23T00:41:46.948Z,97863.28
2023-12-23T00:43:19.469Z,97872.06
2023-12-23T00:44:52.797Z,97838.97
2023-12-23T00:46:25.317Z,97862.31
2023-12-23T00:47:58.750Z,97858.72
2023-12-23T00:49:32.897Z,97858.72
2023-12-23T00:51:08.730Z,97836.81
2023-12-23T00:52:40.982Z,97805.13
2023-12-23T00:54:14.335Z,97859.16
2023-12-23T00:55:46.759Z,97858.38
2023-12-23T00:57:20.035Z,97866.78
2023-12-23T00:58:52.290Z,97859.81
2023-12-23T01:00:25.673Z,97856.03
2023-12-23T01:01:58.187Z,97846.31
2023-12-23T01:03:31.483Z,97873.59
2023-12-23T01:05:06.039Z,97885.56
2023-12-23T01:06:39.411Z,97887.81
2023-12-23T01:08:11.965Z,97886.19
2023-12-23T01:09:45.212Z,97887.38
2023-12-23T01:11:17.725Z,97880.38
2023-12-23T01:12:50.914Z,97871.81
2023-12-23T01:14:24.617Z,97870.53
2023-12-23T01:15:56.861Z,97867.31
2023-12-23T01:17:30.149Z,97858.56
2023-12-23T01:19:02.434Z,97857.56
2023-12-23T01:20:39.602Z,97852.81
2023-12-23T01:22:11.869Z,97839.66
2023-12-23T01:23:45.114Z,97848.25
2023-12-23T01:25:17.393Z,97840.09
2023-12-23T01:26:51.227Z,97823.72
2023-12-23T01:28:23.450Z,97818.88
2023-12-23T01:29:57.760Z,97805.28
2023-12-23T01:31:31.053Z,97792.84
2023-12-23T01:33:05.048Z,97795.63
2023-12-23T01:34:39.616Z,97803.44
2023-12-23T01:36:13.249Z,97785.97
2023-12-23T01:37:46.901Z,97789.81
2023-12-23T01:39:19.955Z,97792.41
2023-12-23T01:40:53.290Z,97779.59
2023-12-23T01:42:25.630Z,97769.16
2023-12-23T01:43:58.975Z,97757.53
2023-12-23T01:45:32.385Z,97772.00
2023-12-23T01:47:08.272Z,97749.72
2023-12-23T01:48:43.935Z,97752.06
2023-12-23T01:50:20.428Z,97753.06
2023-12-23T01:51:56.256Z,97741.91
2023-12-23T01:53:30.046Z,97781.50
2023-12-23T01:55:02.637Z,97766.31
2023-12-23T01:56:36.658Z,97778.91
2023-12-23T01:58:09.143Z,97775.69
2023-12-23T01:59:42.471Z,97763.72
2023-12-23T02:01:14.883Z,97685.38
2023-12-23T02:02:49.426Z,97754.56
2023-12-23T02:04:22.581Z,97734.91
2023-12-23T02:05:56.239Z,97750.53
2023-12-23T02:07:29.849Z,97746.72
2023-12-23T02:09:03.955Z,97746.09
2023-12-23T02:10:36.334Z,97759.25
2023-12-23T02:12:21.401Z,97742.88
2023-12-23T02:14:03.242Z,97747.44
2023-12-23T02:15:38.453Z,97725.28
2023-12-23T02:17:12.234Z,97748.06
2023-12-23T02:18:46.703Z,97739.94
2023-12-23T02:20:20.104Z,97730.25
2023-12-23T02:21:53.989Z,97721.75
2023-12-23T02:23:27.425Z,97718.00
2023-12-23T02:25:00.094Z,97721.84
2023-12-23T02:26:36.181Z,97725.72
2023-12-23T02:28:13.533Z,97719.53
2023-12-23T02:29:48.641Z,97714.88
2023-12-23T02:31:22.552Z,97710.94
2023-12-23T02:32:56.515Z,97701.56
2023-12-23T02:34:30.614Z,97688.34
2023-12-23T02:36:03.806Z,97687.63
2023-12-23T02:37:37.431Z,97681.72
2023-12-23T02:39:13.691Z,97686.97
2023-12-23T02:40:47.559Z,97646.97
2023-12-23T02:42:20.826Z,97680.03
2023-12-23T02:43:53.118Z,97683.00
2023-12-23T02:45:26.448Z,97681.38
2023-12-23T02:46:59.868Z,97680.13
2023-12-23T02:48:33.290Z,97671.72
2023-12-23T02:50:06.550Z,97657.53
2023-12-23T02:51:39.783Z,97660.78
2023-12-23T02:53:14.729Z,97664.47
2023-12-23T02:54:47.083Z,97665.91
2023-12-23T02:56:20.433Z,97656.19
2023-12-23T02:57:52.737Z,97665.53
2023-12-23T02:59:26.243Z,97653.22
2023-12-23T03:00:58.826Z,97643.75
2023-12-23T03:02:32.125Z,97639.75
2023-12-23T03:04:04.524Z,97660.88
2023-12-23T03:05:38.272Z,97649.75
2023-12-23T03:07:10.886Z,97647.16
2023-12-23T03:08:45.479Z,97641.19
2023-12-23T03:10:17.877Z,97645.19
2023-12-23T03:11:51.239Z,97637.44
2023-12-23T03:13:23.452Z,97636.53
2023-12-23T03:14:56.764Z,97642.13
2023-12-23T03:16:35.168Z,97639.13
2023-12-23T03:18:08.672Z,97632.69
2023-12-23T03:19:42.267Z,97613.97
2023-12-23T03:21:15.654Z,97628.53
2023-12-23T03:22:48.110Z,97632.47
2023-12-23T03:24:23.012Z,97637.00
2023-12-23T03:25:55.470Z,97634.59
2023-12-23T03:27:28.950Z,97628.97
2023-12-23T03:29:01.197Z,97626.41
2023-12-23T03:30:34.779Z,97630.69
2023-12-23T03:32:08.640Z,97625.41
2023-12-23T03:33:43.284Z,97624.75
2023-12-23T03:35:16.711Z,97621.72
2023-12-23T03:36:49.133Z,97619.13
2023-12-23T03:38:23.302Z,97621.72
2023-12-23T03:39:58.162Z,97617.16
2023-12-23T03:41:31.433Z,97604.31
2023-12-23T03:43:03.939Z,97620.38
2023-12-23T03:44:37.243Z,97583.41
2023-12-23T03:46:10.805Z,97621.38
2023-12-23T03:47:44.145Z,97615.56
2023-12-23T03:49:16.781Z,97613.63
2023-12-23T03:50:50.034Z,97605.38
2023-12-23T03:52:22.227Z,97595.50
2023-12-23T03:53:55.697Z,97591.50
2023-12-23T03:55:33.902Z,97589.09
2023-12-23T03:57:07.449Z,97595.41
2023-12-23T03:58:40.762Z,97597.50
2023-12-23T04:00:15.136Z,97599.66
2023-12-23T04:01:47.535Z,97596.44
2023-12-23T04:03:20.968Z,97594.53
2023-12-23T04:04:53.225Z,97581.84
2023-12-23T04:06:28.982Z,97567.16
2023-12-23T04:08:01.623Z,97597.34
2023-12-23T04:09:35.119Z,97599.28
2023-12-23T04:11:09.104Z,97603.22
2023-12-23T04:12:42.501Z,97601.25
2023-12-23T04:14:14.921Z,97590.44
2023-12-23T04:15:48.561Z,97609.00
2023-12-23T04:17:21.740Z,97614.00
2023-12-23T04:18:55.340Z,97590.91
2023-12-23T04:20:29.451Z,97601.88
2023-12-23T04:22:03.391Z,97606.06
2023-12-23T04:23:36.675Z,97607.69
2023-12-23T04:25:09.338Z,97614.94
2023-12-23T04:26:44.555Z,97607.31
2023-12-23T04:28:21.768Z,97593.50
2023-12-23T04:29:55.126Z,97581.41
2023-12-23T04:31:27.490Z,97599.28
2023-12-23T04:33:01.177Z,97579.16
2023-12-23T04:34:33.936Z,97600.25
2023-12-23T04:36:08.463Z,97608.00
2023-12-23T04:37:43.214Z,97603.47
2023-12-23T04:39:17.854Z,97615.63
2023-12-23T04:40:50.470Z,97604.09
2023-12-23T04:42:25.166Z,97604.09
2023-12-23T04:43:58.109Z,97603.84
2023-12-23T04:45:31.669Z,97609.53
2023-12-23T04:47:04.202Z,97594.03
2023-12-23T04:48:37.471Z,97612.13
2023-12-23T04:50:11.108Z,97622.69
2023-12-23T04:51:45.628Z,97610.28
2023-12-23T04:53:19.177Z,97616.91
2023-12-23T04:54:51.399Z,97602.28
2023-12-23T04:56:24.870Z,97592.44
2023-12-23T04:57:58.651Z,97597.66
2023-12-23T04:59:31.908Z,97597.66
2023-12-23T05:01:04.397Z,97589.16
2023-12-23T05:02:37.955Z,97577.69
2023-12-23T05:04:10.291Z,97587.06
2023-12-23T05:05:43.948Z,97602.56
2023-12-23T05:07:16.228Z,97613.06
2023-12-23T05:08:49.821Z,97607.41
2023-12-23T05:10:22.194Z,97612.75
2023-12-23T05:11:55.549Z,97613.38
2023-12-23T05:13:29.213Z,97610.97
2023-12-23T05:15:02.698Z,97614.19
2023-12-23T05:16:35.041Z,97591.00
2023-12-23T05:18:08.413Z,97600.28
2023-12-23T05:19:41.822Z,97602.25
2023-12-23T05:21:15.235Z,97603.22
2023-12-23T05:22:47.892Z,97609.66
2023-12-23T05:24:21.381Z,97612.56
2023-12-23T05:25:54.632Z,97611.25
2023-12-23T05:27:28.919Z,97622.56
2023-12-23T05:29:02.758Z,97629.34
2023-12-23T05:30:37.538Z,97628.06
2023-12-23T05:32:09.790Z,97630.97
2023-12-23T05:33:44.278Z,97621.75
2023-12-23T05:35:16.730Z,97630.16
2023-12-23T05:36:49.978Z,97609.66
2023-12-23T05:38:22.239Z,97619.19
2023-12-23T05:39:55.658Z,97618.03
2023-12-23T05:41:28.051Z,97596.75
2023-12-23T05:43:04.707Z,97628.69
2023-12-23T05:44:38.418Z,97627.38
2023-12-23T05:46:11.850Z,97613.97
2023-12-23T05:47:44.670Z,97617.69
2023-12-23T05:49:20.398Z,97606.72
2023-12-23T05:50:53.880Z,97622.34
2023-12-23T05:52:27.363Z,97617.69
2023-12-23T05:53:59.744Z,97600.00
2023-12-23T05:55:34.135Z,97603.69
2023-12-23T05:57:06.442Z,97616.91
2023-12-23T05:58:39.836Z,97609.66
2023-12-23T06:00:15.240Z,97631.91
2023-12-23T06:01:48.584Z,97623.22
2023-12-23T06:03:20.850Z,97620.00
2023-12-23T06:04:54.558Z,97623.53
2023-12-23T06:06:27.076Z,97620.31
2023-12-23T06:08:00.422Z,97621.59
2023-12-23T06:09:32.723Z,97629.00
2023-12-23T06:11:07.699Z,97629.19
2023-12-23T06:12:41.113Z,97615.47
2023-12-23T06:14:13.424Z,97631.59
2023-12-23T06:15:48.110Z,97632.06
2023-12-23T06:17:20.472Z,97614.47
2023-12-23T06:18:54.351Z,97624.81
2023-12-23T06:20:26.864Z,97625.25
2023-12-23T06:22:00.223Z,97628.97
2023-12-23T06:23:32.599Z,97628.47
2023-12-23T06:25:07.789Z,97628.94
2023-12-23T06:26:42.224Z,97624.06
2023-12-23T06:28:16.827Z,97623.09
2023-12-23T06:29:49.294Z,97604.22
2023-12-23T06:31:25.425Z,97621.78
2023-12-23T06:32:57.767Z,97628.75
2023-12-23T06:34:31.108Z,97622.13
2023-12-23T06:36:03.976Z,97621.63
2023-12-23T06:37:37.419Z,97633.72
2023-12-23T06:39:09.737Z,97621.13
2023-12-23T06:40:43.123Z,97635.78
2023-12-23T06:42:15.364Z,97630.09
2023-12-23T06:43:52.705Z,97642.00
2023-12-23T06:45:26.751Z,97633.75
2023-12-23T06:47:00.406Z,97647.94
2023-12-23T06:48:34.800Z,97649.06
2023-12-23T06:50:08.501Z,97629.63
2023-12-23T06:51:41.963Z,97659.97
2023-12-23T06:53:14.228Z,97661.59
2023-12-23T06:54:47.566Z,97668.94
2023-12-23T06:56:22.650Z,97637.09
2023-12-23T06:57:56.083Z,97641.19
2023-12-23T06:59:29.330Z,97648.16
2023-12-23T07:01:01.666Z,97647.19
2023-12-23T07:02:36.918Z,97652.34
2023-12-23T07:04:09.785Z,97653.91
2023-12-23T07:05:43.361Z,97668.59
2023-12-23T07:07:15.864Z,97668.72
2023-12-23T07:08:49.393Z,97644.31
2023-12-23T07:10:22.791Z,97652.97
2023-12-23T07:11:55.062Z,97673.91
2023-12-23T07:13:28.534Z,97693.75
2023-12-23T07:15:01.002Z,97688.59
2023-12-23T07:16:34.212Z,97708.31
2023-12-23T07:18:08.536Z,97723.44
2023-12-23T07:19:41.832Z,97729.53
2023-12-23T07:21:14.559Z,97772.94
2023-12-23T07:22:48.929Z,97763.22
2023-12-23T07:24:21.362Z,97753.47
2023-12-23T07:25:54.657Z,97779.72
2023-12-23T07:27:28.074Z,97789.75
2023-12-23T07:29:00.553Z,97778.66
2023-12-23T07:30:33.959Z,97744.81
2023-12-23T07:32:07.261Z,97759.94
2023-12-23T07:33:42.230Z,97766.16
2023-12-23T07:35:14.757Z,97764.63
2023-12-23T07:36:48.032Z,97771.84
2023-12-23T07:38:20.429Z,97786.63
2023-12-23T07:39:54.307Z,97803.69
2023-12-23T07:41:26.740Z,97808.09
2023-12-23T07:43:00.267Z,97820.38
2023-12-23T07:44:37.830Z,97832.00
2023-12-23T07:46:11.549Z,97858.81
2023-12-23T07:47:43.806Z,97879.66
2023-12-23T07:49:18.702Z,97871.66
2023-12-23T07:50:52.037Z,97876.63
2023-12-23T07:52:24.687Z,97868.59
2023-12-23T07:53:58.143Z,97887.56
2023-12-23T07:55:30.605Z,97916.34
2023-12-23T07:57:03.918Z,97925.53
2023-12-23T07:58:38.368Z,97889.00
2023-12-23T08:00:13.082Z,97923.59
2023-12-23T08:01:49.639Z,97934.97
2023-12-23T08:03:25.512Z,97939.03
2023-12-23T08:04:59.464Z,97937.06
2023-12-23T08:06:32.952Z,97938.41
2023-12-23T08:08:06.647Z,97941.09
2023-12-23T08:09:39.963Z,97931.53
2023-12-23T08:11:12.905Z,97978.13
2023-12-23T08:12:51.451Z,97984.44
2023-12-23T08:14:23.847Z,98014.03
2023-12-23T08:15:57.259Z,98024.25
2023-12-23T08:17:30.316Z,97984.00
2023-12-23T08:19:03.661Z,97994.75
2023-12-23T08:20:37.889Z,97996.56
2023-12-23T08:22:11.614Z,98020.47
2023-12-23T08:23:44.078Z,98014.66
2023-12-23T08:25:17.562Z,98025.44
2023-12-23T08:26:49.834Z,98031.72
2023-12-23T08:28:23.201Z,98022.06
2023-12-23T08:29:55.844Z,98021.13
2023-12-23T08:31:29.197Z,98016.13
2023-12-23T08:33:01.494Z,98014.34
2023-12-23T08:34:34.798Z,98036.91
2023-12-23T08:36:09.045Z,98021.66
2023-12-23T08:37:42.510Z,98037.09
2023-12-23T08:39:14.850Z,98031.34
2023-12-23T08:40:48.272Z,98020.59
2023-12-23T08:42:20.724Z,98012.97
2023-12-23T08:43:54.032Z,98004.97
2023-12-23T08:45:27.525Z,98028.84
2023-12-23T08:46:59.724Z,98031.44
2023-12-23T08:48:33.160Z,98049.81
2023-12-23T08:50:06.490Z,98053.75
2023-12-23T08:51:41.162Z,98070.09
2023-12-23T08:53:13.576Z,98067.50
2023-12-23T08:54:46.959Z,98049.38
2023-12-23T08:56:19.452Z,98091.13
2023-12-23T08:57:52.956Z,98055.75
2023-12-23T08:59:25.603Z,98070.91
2023-12-23T09:00:59.944Z,98069.72
2023-12-23T09:02:32.444Z,98067.38
2023-12-23T09:04:06.013Z,98077.44
2023-12-23T09:05:39.382Z,98076.63
2023-12-23T09:07:13.768Z,98060.22
2023-12-23T09:08:47.332Z,98037.28
2023-12-23T09:10:19.799Z,98054.03
2023-12-23T09:11:53.270Z,98056.88
2023-12-23T09:13:25.676Z,98054.22
2023-12-23T09:14:58.997Z,98058.50
2023-12-23T09:16:31.312Z,98077.44
2023-12-23T09:18:05.031Z,98097.84
2023-12-23T09:19:37.387Z,98066.22
2023-12-23T09:21:10.865Z,98106.28
2023-12-23T09:22:45.460Z,98093.75
2023-12-23T09:24:19.772Z,98095.88
2023-12-23T09:25:54.071Z,98109.88
2023-12-23T09:27:27.984Z,98122.28
2023-12-23T09:29:01.382Z,98112.50
2023-12-23T09:30:33.700Z,98107.28
2023-12-23T09:32:07.698Z,98121.47
2023-12-23T09:33:40.929Z,98121.91
2023-12-23T09:35:14.436Z,98092.16
2023-12-23T09:36:47.879Z,98097.59
2023-12-23T09:38:22.693Z,98117.78
2023-12-23T09:39:55.800Z,98105.94
2023-12-23T09:41:29.194Z,98098.41
2023-12-23T09:43:01.651Z,98081.50
2023-12-23T09:44:35.637Z,98127.25
2023-12-23T09:46:09.375Z,98106.44
2023-12-23T09:47:44.055Z,98082.66
2023-12-23T09:49:16.552Z,98127.41
2023-12-23T09:50:49.968Z,98140.41
2023-12-23T09:52:22.754Z,98136.22
2023-12-23T09:53:59.803Z,98113.75
2023-12-23T09:55:32.816Z,98115.59
2023-12-23T09:57:06.303Z,98127.78
2023-12-23T09:58:38.578Z,98111.16
2023-12-23T10:00:13.812Z,98098.00
2023-12-23T10:01:46.727Z,98114.38
2023-12-23T10:03:23.169Z,98115.03
2023-12-23T10:04:55.670Z,98113.06
2023-12-23T10:06:29.239Z,98110.63
2023-12-23T10:08:01.661Z,98128.28
2023-12-23T10:09:36.426Z,98127.31
2023-12-23T10:11:08.726Z,98118.50
2023-12-23T10:12:42.463Z,98125.41
2023-12-23T10:14:14.872Z,98128.97
2023-12-23T10:15:48.349Z,98128.81
2023-12-23T10:17:20.683Z,98147.91
2023-12-23T10:18:54.538Z,98128.94
2023-12-23T10:20:27.743Z,98129.91
2023-12-23T10:22:04.991Z,98131.00
2023-12-23T10:23:38.938Z,98125.31
2023-12-23T10:25:12.957Z,98149.66
2023-12-23T10:26:48.180Z,98164.34
2023-12-23T10:28:22.544Z,98178.81
2023-12-23T10:29:58.447Z,98171.97
2023-12-23T10:31:32.658Z,98176.84
2023-12-23T10:33:08.687Z,98175.06
2023-12-23T10:34:44.732Z,98180.13
2023-12-23T10:36:21.606Z,98192.13
2023-12-23T10:37:58.068Z,98185.94
2023-12-23T10:39:36.416Z,98207.84
2023-12-23T10:41:19.291Z,98192.81
2023-12-23T10:42:53.684Z,98200.63
2023-12-23T10:44:29.057Z,98179.38
2023-12-23T10:46:02.949Z,98201.13
2023-12-23T10:47:37.355Z,98209.34
2023-12-23T10:49:11.887Z,98216.00
2023-12-23T10:50:48.334Z,98201.78
2023-12-23T10:52:21.417Z,98218.56
2023-12-23T10:53:56.302Z,98209.53
2023-12-23T10:55:30.777Z,98215.91
2023-12-23T10:57:07.371Z,98214.09
2023-12-23T10:58:40.835Z,98221.09
2023-12-23T11:00:15.095Z,98228.09
2023-12-23T11:01:49.072Z,98227.13
2023-12-23T11:03:22.857Z,98228.84
2023-12-23T11:04:57.044Z,98238.94
2023-12-23T11:06:32.949Z,98235.00
2023-12-23T11:08:14.161Z,98237.06
2023-12-23T11:09:54.019Z,98234.16
2023-12-23T11:11:27.588Z,98249.44
2023-12-23T11:13:02.669Z,98243.47
2023-12-23T11:14:35.024Z,98246.47
2023-12-23T11:16:11.915Z,98234.84
2023-12-23T11:17:44.777Z,98227.16
2023-12-23T11:19:19.149Z,98174.59
2023-12-23T11:20:51.703Z,98205.09
2023-12-23T11:22:26.820Z,98216.75
2023-12-23T11:24:01.081Z,98222.84
2023-12-23T11:25:39.583Z,98241.69
2023-12-23T11:27:30.284Z,98239.72
2023-12-23T11:29:07.832Z,98240.72
2023-12-23T11:30:47.928Z,98250.13
2023-12-23T11:32:21.723Z,98235.59
2023-12-23T11:33:54.450Z,98240.06
2023-12-23T11:35:28.007Z,98259.84
2023-12-23T11:37:00.435Z,98259.03
2023-12-23T11:38:48.365Z,98264.44
2023-12-23T11:40:21.691Z,98254.03
2023-12-23T11:41:55.040Z,98282.47
2023-12-23T11:43:27.298Z,98268.47
2023-12-23T11:45:02.134Z,98269.72
2023-12-23T11:46:37.400Z,98279.13
2023-12-23T11:48:11.251Z,98293.34
2023-12-23T11:49:46.173Z,98284.47
2023-12-23T11:51:18.704Z,98277.47
2023-12-23T11:52:52.863Z,98271.44
2023-12-23T11:54:25.547Z,98268.94
2023-12-23T11:55:59.080Z,98295.16
2023-12-23T11:57:31.990Z,98286.72
2023-12-23T11:59:06.765Z,98273.19
2023-12-23T12:00:42.072Z,98289.78
2023-12-23T12:02:15.503Z,98270.84
2023-12-23T12:03:48.717Z,98300.09
2023-12-23T12:05:22.337Z,98293.28
2023-12-23T12:06:56.406Z,98284.19
2023-12-23T12:08:31.784Z,98316.06
2023-12-23T12:10:05.358Z,98303.44
2023-12-23T12:11:38.993Z,98243.13
2023-12-23T12:13:12.438Z,98301.44
2023-12-23T12:14:44.904Z,98302.41
2023-12-23T12:16:19.868Z,98258.91
2023-12-23T12:17:53.120Z,98299.19
2023-12-23T12:19:26.741Z,98293.63
2023-12-23T12:20:59.332Z,98312.22
2023-12-23T12:22:33.480Z,98288.72
2023-12-23T12:24:06.742Z,98305.75
2023-12-23T12:25:40.044Z,98302.88
2023-12-23T12:27:12.279Z,98311.16
2023-12-23T12:28:47.877Z,98311.78
2023-12-23T12:30:20.501Z,98306.75
2023-12-23T12:31:56.065Z,98316.53
2023-12-23T12:33:28.427Z,98307.53
2023-12-23T12:35:05.119Z,98297.41
2023-12-23T12:36:37.567Z,98306.47
2023-12-23T12:38:17.238Z,98298.84
2023-12-23T12:39:56.584Z,98307.78
2023-12-23T12:41:30.346Z,98298.09
2023-12-23T12:43:06.900Z,98328.56
2023-12-23T12:44:41.931Z,98306.53
2023-12-23T12:46:16.304Z,98339.94
2023-12-23T12:47:52.423Z,98329.09
2023-12-23T12:49:25.406Z,98337.25
2023-12-23T12:50:59.230Z,98330.59
2023-12-23T12:52:31.958Z,98332.44
2023-12-23T12:54:06.209Z,98331.63
2023-12-23T12:55:38.585Z,98350.00
2023-12-23T12:57:11.860Z,98342.38
2023-12-23T12:58:46.283Z,98337.09
2023-12-23T13:00:22.319Z,98340.16
2023-12-23T13:01:55.381Z,98325.69
2023-12-23T13:03:30.149Z,98315.53
2023-12-23T13:05:02.348Z,98332.06
2023-12-23T13:06:35.700Z,98322.09
2023-12-23T13:08:08.434Z,98327.28
2023-12-23T13:09:42.024Z,98310.25
2023-12-23T13:11:15.014Z,98309.25
2023-12-23T13:12:48.562Z,98312.47
2023-12-23T13:14:22.207Z,98323.53
2023-12-23T13:15:54.416Z,98316.34
2023-12-23T13:17:27.931Z,98326.75
2023-12-23T13:19:01.916Z,98295.88
2023-12-23T13:20:35.420Z,98329.91
2023-12-23T13:22:08.686Z,98324.50
2023-12-23T13:23:41.009Z,98324.69
2023-12-23T13:25:14.562Z,98326.28
2023-12-23T13:26:46.949Z,98335.66
2023-12-23T13:28:20.449Z,98320.66
2023-12-23T13:29:52.792Z,98343.91
2023-12-23T13:31:26.033Z,98331.22
2023-12-23T13:32:58.485Z,98320.91
2023-12-23T13:34:33.537Z,98348.38
2023-12-23T13:36:06.319Z,98330.88
2023-12-23T13:37:41.456Z,98324.59
2023-12-23T13:39:14.493Z,98359.69
2023-12-23T13:40:49.797Z,98325.31
2023-12-23T13:42:22.607Z,98336.13
2023-12-23T13:43:56.380Z,98361.41
2023-12-23T13:45:29.415Z,98371.84
2023-12-23T13:47:03.736Z,98352.59
2023-12-23T13:48:37.128Z,98356.81
2023-12-23T13:50:12.253Z,98376.84
2023-12-23T13:51:45.766Z,98361.84
2023-12-23T13:53:18.114Z,98369.84
2023-12-23T13:54:51.465Z,98335.91
2023-12-23T13:56:23.744Z,98343.88
2023-12-23T13:57:57.251Z,98374.75
2023-12-23T13:59:29.529Z,98378.81
2023-12-23T14:01:03.300Z,98380.25
2023-12-23T14:02:35.624Z,98361.03
2023-12-23T14:04:08.911Z,98372.41
2023-12-23T14:05:44.227Z,98387.25
2023-12-23T14:07:17.556Z,98362.38
2023-12-23T14:08:49.818Z,98347.44
2023-12-23T14:10:23.165Z,98365.63
2023-12-23T14:11:55.462Z,98368.03
2023-12-23T14:13:28.720Z,98354.00
2023-12-23T14:15:01.158Z,98376.47
2023-12-23T14:16:35.792Z,98368.84
2023-12-23T14:18:08.815Z,98352.66
2023-12-23T14:19:42.087Z,98374.75
2023-12-23T14:21:15.813Z,98365.19
2023-12-23T14:22:49.412Z,98365.88
2023-12-23T14:24:21.979Z,98380.72
2023-12-23T14:25:55.287Z,98379.09
2023-12-23T14:27:28.640Z,98373.81
2023-12-23T14:29:01.100Z,98371.03
2023-12-23T14:30:35.617Z,98372.00
2023-12-23T14:32:07.889Z,98354.41
2023-12-23T14:33:43.458Z,98383.34
2023-12-23T14:35:16.273Z,98371.47
2023-12-23T14:36:50.867Z,98360.78
2023-12-23T14:38:23.195Z,98357.75
2023-12-23T14:39:56.520Z,98365.56
2023-12-23T14:41:29.945Z,98363.31
2023-12-23T14:43:03.446Z,98371.31
2023-12-23T14:44:36.277Z,98371.66
2023-12-23T14:46:10.221Z,98360.00
2023-12-23T14:47:43.502Z,98365.56
2023-12-23T14:49:17.407Z,98376.78
2023-12-23T14:50:49.712Z,98358.84
2023-12-23T14:52:24.459Z,98377.31
2023-12-23T14:53:57.026Z,98356.13
2023-12-23T14:55:30.358Z,98367.91
2023-12-23T14:57:02.791Z,98363.84
2023-12-23T14:58:36.241Z,98371.59
2023-12-23T15:00:11.056Z,98355.34
2023-12-23T15:01:44.699Z,98350.66
2023-12-23T15:03:18.275Z,98358.63
2023-12-23T15:04:50.738Z,98363.84
2023-12-23T15:06:24.258Z,98362.84
2023-12-23T15:07:58.243Z,98329.91
2023-12-23T15:09:31.797Z,98318.22
2023-12-23T15:11:05.437Z,98366.19
2023-12-23T15:12:39.415Z,98347.06
2023-12-23T15:14:11.728Z,98360.50
2023-12-23T15:15:45.192Z,98349.31
2023-12-23T15:17:18.088Z,98348.66
2023-12-23T15:18:53.675Z,98352.88
2023-12-23T15:20:26.869Z,98362.47
2023-12-23T15:22:00.538Z,98364.47
2023-12-23T15:23:35.349Z,98379.88
2023-12-23T15:25:09.333Z,98371.34
2023-12-23T15:26:41.951Z,98383.69
2023-12-23T15:28:15.238Z,98381.22
2023-12-23T15:29:47.556Z,98379.97
2023-12-23T15:31:21.040Z,98383.09
2023-12-23T15:32:53.765Z,98395.59
2023-12-23T15:34:27.423Z,98389.75
2023-12-23T15:35:59.713Z,98389.47
2023-12-23T15:37:33.242Z,98386.88
2023-12-23T15:39:06.932Z,98379.59
2023-12-23T15:40:40.298Z,98359.19
2023-12-23T15:42:13.559Z,98381.03
2023-12-23T15:43:46.204Z,98372.50
2023-12-23T15:45:19.659Z,98367.28
2023-12-23T15:46:51.969Z,98369.78
2023-12-23T15:48:25.746Z,98363.94
2023-12-23T15:49:58.172Z,98363.03
2023-12-23T15:51:31.544Z,98366.63
2023-12-23T15:53:04.761Z,98304.19
2023-12-23T15:54:39.716Z,98378.53
2023-12-23T15:56:12.473Z,98381.94
2023-12-23T15:57:45.779Z,98384.28
2023-12-23T15:59:19.005Z,98383.47
2023-12-23T16:00:51.397Z,98389.00
2023-12-23T16:02:24.739Z,98387.97
2023-12-23T16:03:57.104Z,98398.66
2023-12-23T16:05:30.398Z,98393.81
2023-12-23T16:07:03.053Z,98403.56
2023-12-23T16:08:36.518Z,98391.44
2023-12-23T16:10:10.737Z,98398.72
2023-12-23T16:11:44.109Z,98405.88
2023-12-23T16:13:16.502Z,98397.44
2023-12-23T16:14:49.840Z,98387.78
2023-12-23T16:16:22.260Z,98391.34
2023-12-23T16:17:55.558Z,98407.59
2023-12-23T16:19:27.819Z,98399.50
2023-12-23T16:21:01.298Z,98413.59
2023-12-23T16:22:35.408Z,98414.41
2023-12-23T16:24:09.075Z,98421.69
2023-12-23T16:25:42.786Z,98419.91
2023-12-23T16:27:16.197Z,98421.34
2023-12-23T16:28:48.559Z,98405.16
2023-12-23T16:30:21.852Z,98402.72
2023-12-23T16:31:54.195Z,98432.50
2023-12-23T16:33:27.640Z,98433.16
2023-12-23T16:34:59.998Z,98432.00
2023-12-23T16:36:33.312Z,98441.25
2023-12-23T16:38:05.690Z,98439.63
2023-12-23T16:39:39.147Z,98446.72
2023-12-23T16:41:13.295Z,98399.09
2023-12-23T16:42:46.665Z,98430.63
2023-12-23T16:44:19.180Z,98438.25
2023-12-23T16:45:52.578Z,98438.59
2023-12-23T16:47:24.872Z,98431.09
2023-12-23T16:48:58.382Z,98423.94
2023-12-23T16:50:30.741Z,98421.66
2023-12-23T16:52:04.270Z,98414.50
2023-12-23T16:53:38.290Z,98411.72
2023-12-23T16:55:12.019Z,98421.28
2023-12-23T16:56:46.835Z,98422.94
2023-12-23T16:58:20.479Z,98411.06
2023-12-23T16:59:53.919Z,98406.94
2023-12-23T17:01:26.286Z,98393.16
2023-12-23T17:02:59.561Z,98400.16
2023-12-23T17:04:31.926Z,98393.94
2023-12-23T17:06:05.287Z,98381.94
2023-12-23T17:07:37.556Z,98389.75
2023-12-23T17:09:12.055Z,98375.28
2023-12-23T17:10:44.421Z,98359.25
2023-12-23T17:12:19.194Z,98355.69
2023-12-23T17:13:52.437Z,98362.84
2023-12-23T17:15:25.237Z,98368.38
2023-12-23T17:16:59.721Z,98363.25
2023-12-23T17:18:33.419Z,98365.56
2023-12-23T17:20:08.082Z,98380.34
2023-12-23T17:21:41.399Z,98379.25
2023-12-23T17:23:13.817Z,98385.75
2023-12-23T17:24:47.223Z,98388.88
2023-12-23T17:26:19.838Z,98387.44
2023-12-23T17:27:54.574Z,98390.56
2023-12-23T17:29:27.075Z,98388.09
2023-12-23T17:31:00.563Z,98375.28
2023-12-23T17:32:33.880Z,98370.28
2023-12-23T17:34:07.376Z,98361.22
2023-12-23T17:35:40.724Z,98364.31
2023-12-23T17:37:14.202Z,98376.50
2023-12-23T17:38:47.460Z,98363.56
2023-12-23T17:40:20.758Z,98362.88
2023-12-23T17:41:53.517Z,98337.34
2023-12-23T17:43:28.175Z,98343.47
2023-12-23T17:45:00.462Z,98349.63
2023-12-23T17:46:33.758Z,98357.78
2023-12-23T17:48:07.768Z,98340.13
2023-12-23T17:49:41.011Z,98331.19
2023-12-23T17:51:13.424Z,98338.72
2023-12-23T17:52:46.768Z,98340.81
2023-12-23T17:54:20.179Z,98333.19
2023-12-23T17:55:52.823Z,98354.28
2023-12-23T17:57:27.556Z,98348.63
2023-12-23T17:59:01.334Z,98343.09
2023-12-23T18:00:34.781Z,98349.09
2023-12-23T18:02:07.078Z,98326.09
2023-12-23T18:03:40.332Z,98345.06
2023-12-23T18:05:12.860Z,98313.66
2023-12-23T18:06:46.275Z,98352.88
2023-12-23T18:08:19.578Z,98335.22
2023-12-23T18:09:52.049Z,98328.09
2023-12-23T18:11:25.501Z,98348.22
2023-12-23T18:13:00.965Z,98342.38
2023-12-23T18:14:36.049Z,98318.75
2023-12-23T18:16:08.907Z,98401.44
2023-12-23T18:17:43.040Z,98356.06
2023-12-23T18:19:15.599Z,98331.78
2023-12-23T18:20:48.839Z,98414.25